Time;durP1;ratioP1;P1;durP2;ratioP2;P2;SDS_P1;SDS_P2;PMS_P1;PMS_P2;Temp;Humidity;BMP_temperature;BMP_pressure;BME280_temperature;BME280_humidity;BME280_pressure;Samples;Min_cycle;Max_cycle;Signal;HPM_P1;HPM_P2
2023/12/04 00:00:35;;;;;;;30.43;12.30;;;;;;;-1.41;77.43;101203.21;124768;1099;101928;-74
2023/12/04 00:03:26;;;;;;;31.13;12.90;;;;;;;-1.45;76.11;101200.34;124336;1099;104265;-75
2023/12/04 00:05:57;;;;;;;31.23;13.33;;;;;;;-1.45;77.26;101207.14;124874;1099;104300;-76
2023/12/04 00:08:29;;;;;;;29.00;11.57;;;;;;;-1.48;76.78;101209.42;124854;1099;110814;-74
2023/12/04 00:11:00;;;;;;;28.80;12.33;;;;;;;-1.50;75.93;101206.70;124871;1099;104224;-75
2023/12/04 00:13:32;;;;;;;27.47;12.07;;;;;;;-1.52;76.00;101203.09;124361;1099;102259;-75
2023/12/04 00:16:03;;;;;;;29.97;13.10;;;;;;;-1.54;76.48;101213.98;124814;1099;104242;-76
2023/12/04 00:18:35;;;;;;;30.87;13.37;;;;;;;-1.57;76.86;101226.56;124872;1099;104162;-75
2023/12/04 00:21:07;;;;;;;28.53;13.03;;;;;;;-1.62;76.43;101226.16;124840;1098;102277;-74
2023/12/04 00:23:39;;;;;;;31.10;12.97;;;;;;;-1.65;76.78;101229.33;124875;1098;104245;-75
2023/12/04 00:26:11;;;;;;;31.87;13.30;;;;;;;-1.65;76.95;101231.01;124792;1099;104223;-75
2023/12/04 00:28:42;;;;;;;30.70;13.43;;;;;;;-1.67;77.08;101230.86;124753;1099;102034;-75
2023/12/04 00:31:14;;;;;;;29.77;12.67;;;;;;;-1.70;76.55;101234.78;124782;1099;101839;-75
2023/12/04 00:33:45;;;;;;;27.93;11.97;;;;;;;-1.75;77.42;101231.77;124798;1099;104192;-74
2023/12/04 00:36:19;;;;;;;29.50;12.47;;;;;;;-1.77;76.93;101237.55;124806;1099;104134;-75
2023/12/04 00:38:50;;;;;;;30.88;12.80;;;;;;;-1.83;77.87;101231.02;124918;1098;104198;-74
2023/12/04 00:41:22;;;;;;;30.33;13.27;;;;;;;-1.85;77.80;101229.98;124806;1099;104169;-74
2023/12/04 00:43:53;;;;;;;26.60;11.20;;;;;;;-1.86;77.98;101230.73;124794;1099;104162;-75
2023/12/04 00:46:25;;;;;;;29.00;13.10;;;;;;;-1.87;77.53;101231.51;124824;1098;104233;-76
2023/12/04 00:48:57;;;;;;;28.07;12.70;;;;;;;-1.87;78.16;101235.72;124343;1099;104404;-74
2023/12/04 00:51:28;;;;;;;27.53;12.60;;;;;;;-1.89;77.73;101238.15;124758;1099;102377;-74
2023/12/04 00:54:00;;;;;;;29.97;12.53;;;;;;;-1.89;77.45;101248.44;124774;1099;104099;-75
2023/12/04 00:56:31;;;;;;;30.20;13.17;;;;;;;-1.89;77.52;101244.97;124803;1099;102035;-75
2023/12/04 00:59:03;;;;;;;31.70;13.37;;;;;;;-1.93;78.09;101241.20;124800;1099;104192;-74
2023/12/04 01:01:36;;;;;;;28.20;11.87;;;;;;;-1.96;77.51;101240.91;124768;1099;102742;-74
2023/12/04 01:04:07;;;;;;;28.77;12.57;;;;;;;-1.97;78.18;101240.76;124790;1099;102626;-74
2023/12/04 01:06:39;;;;;;;28.80;12.80;;;;;;;-2.00;78.72;101243.92;124726;1099;104185;-74
2023/12/04 01:09:10;;;;;;;29.60;13.43;;;;;;;-2.01;78.73;101244.67;124701;1099;104233;-74
2023/12/04 01:11:42;;;;;;;28.47;12.37;;;;;;;-2.03;79.14;101244.52;124773;1099;102347;-73
2023/12/04 01:14:13;;;;;;;26.30;11.85;;;;;;;-2.05;79.36;101245.15;124811;1099;101932;-73
2023/12/04 01:16:45;;;;;;;27.03;11.77;;;;;;;-2.07;79.09;101249.22;124810;1099;104238;-76
2023/12/04 01:19:16;;;;;;;29.07;12.27;;;;;;;-2.08;78.70;101260.28;124231;1098;104166;-74
2023/12/04 01:21:48;;;;;;;26.97;11.83;;;;;;;-2.08;79.16;101262.85;124813;1099;101849;-73
2023/12/04 01:24:19;;;;;;;28.20;12.13;;;;;;;-2.11;78.19;101262.55;124373;1099;101927;-74
2023/12/04 01:26:51;;;;;;;30.67;13.40;;;;;;;-2.12;78.53;101268.44;124819;1098;104159;-74
2023/12/04 01:29:22;;;;;;;30.33;12.97;;;;;;;-2.15;79.44;101270.71;124807;1098;104207;-74
2023/12/04 01:31:53;;;;;;;28.60;12.90;;;;;;;-2.19;78.79;101264.37;124808;1099;104159;-74
2023/12/04 01:34:25;;;;;;;32.53;13.33;;;;;;;-2.23;78.79;101275.09;124831;1098;104274;-73
2023/12/04 01:36:57;;;;;;;31.23;13.07;;;;;;;-2.26;79.84;101275.72;124799;1099;104191;-74
2023/12/04 01:39:28;;;;;;;31.67;13.90;;;;;;;-2.30;78.87;101273.59;124402;1099;102887;-74
2023/12/04 01:42:00;;;;;;;29.63;12.77;;;;;;;-2.33;79.99;101273.28;124845;1099;102310;-74
2023/12/04 01:44:31;;;;;;;27.77;12.23;;;;;;;-2.36;80.05;101270.41;124330;1099;104118;-73
2023/12/04 01:47:03;;;;;;;29.85;13.15;;;;;;;-2.37;79.92;101263.44;124871;1099;104242;-74
2023/12/04 01:49:35;;;;;;;29.93;12.20;;;;;;;-2.37;79.55;101271.16;124623;1099;104210;-74
2023/12/04 01:52:07;;;;;;;29.83;12.80;;;;;;;-2.38;80.12;101270.26;124804;1098;104237;-75
2023/12/04 01:54:39;;;;;;;30.00;13.03;;;;;;;-2.39;79.59;101277.81;124824;1099;102236;-75
2023/12/04 01:57:11;;;;;;;28.37;11.23;;;;;;;-2.36;80.52;101278.13;124802;1098;104243;-74
2023/12/04 01:59:44;;;;;;;27.60;11.67;;;;;;;-2.36;79.46;101278.13;124409;1099;104245;-74
2023/12/04 02:02:16;;;;;;;29.67;11.83;;;;;;;-2.37;79.53;101273.72;124803;1099;104233;-74
2023/12/04 02:04:48;;;;;;;30.47;12.17;;;;;;;-2.39;79.76;101280.39;124324;1099;104265;-74
2023/12/04 02:07:19;;;;;;;28.13;12.37;;;;;;;-2.43;80.51;101280.83;124807;1099;104160;-74
2023/12/04 02:09:51;;;;;;;28.93;12.50;;;;;;;-2.42;79.87;101274.94;124285;1099;104175;-74
2023/12/04 02:12:23;;;;;;;28.90;11.40;;;;;;;-2.43;80.78;101275.68;124842;1099;104265;-75
2023/12/04 02:14:54;;;;;;;30.07;12.53;;;;;;;-2.45;80.62;101282.34;124811;1099;102224;-75
2023/12/04 02:17:26;;;;;;;30.27;11.90;;;;;;;-2.47;80.14;101282.19;124828;1098;104163;-73
2023/12/04 02:19:58;;;;;;;29.63;12.67;;;;;;;-2.48;80.79;101275.22;124391;1099;104374;-74
2023/12/04 02:22:29;;;;;;;29.60;12.87;;;;;;;-2.50;80.05;101279.31;124869;1099;104082;-74
2023/12/04 02:25:01;;;;;;;29.13;13.10;;;;;;;-2.52;80.94;101285.97;124322;1099;104232;-76
2023/12/04 02:27:40;;;;;;;31.83;12.93;;;;;;;-2.56;81.01;101279.59;124756;1099;102446;-73
2023/12/04 02:30:15;;;;;;;27.03;11.30;;;;;;;-2.57;80.26;101287.16;124391;1099;104265;-75
2023/12/04 02:32:49;;;;;;;28.77;12.13;;;;;;;-2.59;80.21;101297.27;124817;1099;104287;-75
2023/12/04 02:35:24;;;;;;;26.77;11.67;;;;;;;-2.60;80.54;101297.13;124764;1099;104188;-74
2023/12/04 02:37:58;;;;;;;30.23;12.23;;;;;;;-2.64;80.79;101298.48;124804;1099;104165;-74
2023/12/04 02:40:29;;;;;;;28.12;12.63;;;;;;;-2.65;81.06;101301.83;124781;1099;104239;-74
2023/12/04 02:43:01;;;;;;;27.57;12.10;;;;;;;-2.68;81.08;101308.30;124748;1099;104191;-75
2023/12/04 02:45:33;;;;;;;28.83;11.43;;;;;;;-2.68;80.11;101309.23;124848;1099;104178;-74
2023/12/04 02:48:05;;;;;;;24.90;11.10;;;;;;;-2.67;80.43;101311.02;124782;1099;104057;-76
2023/12/04 02:50:36;;;;;;;28.95;11.90;;;;;;;-2.70;80.71;101315.84;124793;1099;104172;-76
2023/12/04 02:53:08;;;;;;;28.30;12.83;;;;;;;-2.67;80.05;101318.73;124347;1099;104198;-74
2023/12/04 02:55:39;;;;;;;27.83;11.53;;;;;;;-2.66;80.87;101324.80;124790;1099;104255;-74
2023/12/04 02:58:11;;;;;;;27.50;11.13;;;;;;;-2.69;81.03;101327.95;124802;1099;101952;-75
2023/12/04 03:00:42;;;;;;;29.23;11.93;;;;;;;-2.69;80.09;101332.20;124750;1099;104228;-75
2023/12/04 03:03:14;;;;;;;27.20;11.23;;;;;;;-2.70;80.25;101333.83;124796;1099;101935;-74
2023/12/04 03:05:45;;;;;;;27.27;11.30;;;;;;;-2.70;81.44;101338.97;124764;1099;104248;-75
2023/12/04 03:08:17;;;;;;;28.20;11.83;;;;;;;-2.71;80.67;101337.17;124797;1099;104201;-74
2023/12/04 03:10:48;;;;;;;28.60;11.47;;;;;;;-2.75;81.12;101330.80;124736;1099;104398;-75
2023/12/04 03:13:20;;;;;;;27.40;11.83;;;;;;;-2.74;81.67;101329.16;124830;1099;104166;-73
2023/12/04 03:15:51;;;;;;;27.23;11.77;;;;;;;-2.78;81.37;101333.05;124761;1099;104184;-73
2023/12/04 03:18:25;;;;;;;30.03;11.27;;;;;;;-2.79;81.54;101332.89;124850;1099;101846;-74
2023/12/04 03:20:57;;;;;;;29.57;12.45;;;;;;;-2.78;82.27;101342.43;124757;1099;103561;-74
2023/12/04 03:23:28;;;;;;;32.63;12.40;;;;;;;-2.80;80.98;101328.53;124789;1099;104216;-75
2023/12/04 03:26:00;;;;;;;30.40;12.30;;;;;;;-2.80;82.27;101341.38;124772;1099;104650;-75
2023/12/04 03:28:31;;;;;;;30.60;12.93;;;;;;;-2.83;81.72;101335.92;124765;1099;104230;-74
2023/12/04 03:31:03;;;;;;;32.63;13.07;;;;;;;-2.81;81.34;101342.12;124336;1099;101897;-74
2023/12/04 03:33:34;;;;;;;27.13;12.40;;;;;;;-2.84;82.21;101337.56;124794;1099;104239;-76
2023/12/04 03:36:08;;;;;;;28.70;12.27;;;;;;;-2.82;81.32;101346.36;124826;1099;104313;-76
2023/12/04 03:38:39;;;;;;;31.50;13.13;;;;;;;-2.80;82.07;101360.25;124401;1098;104230;-76
2023/12/04 03:41:17;;;;;;;28.60;12.87;;;;;;;-2.81;81.00;101362.66;124747;1099;104303;-76
2023/12/04 03:43:48;;;;;;;31.10;12.57;;;;;;;-2.83;81.31;101366.75;124790;1098;104243;-77
2023/12/04 03:46:20;;;;;;;31.20;13.13;;;;;;;-2.85;81.51;101370.80;124755;1099;101858;-76
2023/12/04 03:48:52;;;;;;;28.63;12.77;;;;;;;-2.86;82.33;101384.41;124774;1099;104233;-76
2023/12/04 03:51:23;;;;;;;34.37;14.57;;;;;;;-2.90;80.76;101372.89;124706;1099;104194;-76
2023/12/04 03:53:55;;;;;;;30.10;12.20;;;;;;;-2.86;81.16;101375.04;124723;1099;104169;-77
2023/12/04 03:56:26;;;;;;;29.83;13.10;;;;;;;-2.86;82.74;101379.27;124806;1099;104242;-77
2023/12/04 03:58:57;;;;;;;30.47;14.20;;;;;;;-2.90;81.18;101372.89;124770;1099;104259;-77
2023/12/04 04:01:29;;;;;;;31.13;13.53;;;;;;;-2.88;81.41;101379.12;124814;1099;104198;-77
2023/12/04 04:04:00;;;;;;;31.17;13.37;;;;;;;-2.89;82.01;101380.75;124648;1099;104146;-77
2023/12/04 04:06:32;;;;;;;32.03;14.63;;;;;;;-2.89;81.85;101380.75;124809;1099;104191;-76
2023/12/04 04:09:03;;;;;;;30.80;14.47;;;;;;;-2.87;81.70;101380.02;124772;1099;104166;-76
2023/12/04 04:11:36;;;;;;;32.37;14.53;;;;;;;-2.86;81.13;101384.41;124828;1099;104217;-76
2023/12/04 04:14:07;;;;;;;31.30;13.53;;;;;;;-2.85;81.96;101388.78;124758;1099;104208;-77
2023/12/04 04:16:39;;;;;;;31.17;14.13;;;;;;;-2.84;81.78;101395.74;124767;1099;104169;-79
2023/12/04 04:19:10;;;;;;;28.97;13.03;;;;;;;-2.85;81.34;101394.84;124802;1099;103690;-77
2023/12/04 04:21:43;;;;;;;29.20;11.65;;;;;;;-2.84;82.08;101394.07;124803;1099;104169;-77
2023/12/04 04:24:15;;;;;;;30.57;13.03;;;;;;;-2.85;82.25;101396.48;124795;1099;104191;-77
2023/12/04 04:26:46;;;;;;;32.03;14.13;;;;;;;-2.82;81.96;101401.94;124799;1099;102043;-76
2023/12/04 04:29:18;;;;;;;31.30;13.17;;;;;;;-2.84;81.64;101401.78;124695;1098;104210;-77
2023/12/04 04:31:49;;;;;;;35.10;14.33;;;;;;;-2.84;80.92;101398.31;124762;1099;102441;-76
2023/12/04 04:34:22;;;;;;;34.00;14.70;;;;;;;-2.83;82.20;101402.71;124575;1099;104166;-78
2023/12/04 04:36:53;;;;;;;32.50;14.77;;;;;;;-2.84;81.85;101388.94;124834;1099;104239;-77
2023/12/04 04:39:25;;;;;;;36.10;16.03;;;;;;;-2.84;80.68;101388.94;124756;1099;104183;-77
2023/12/04 04:41:56;;;;;;;33.10;14.83;;;;;;;-2.85;80.66;101388.78;124727;1099;104098;-77
2023/12/04 04:44:28;;;;;;;38.77;15.80;;;;;;;-2.85;82.22;101391.34;124760;1099;104267;-76
2023/12/04 04:46:59;;;;;;;34.63;15.27;;;;;;;-2.86;81.79;101389.55;124828;1099;102434;-77
2023/12/04 04:49:30;;;;;;;34.50;15.57;;;;;;;-2.84;82.35;101388.94;124398;1099;104288;-78
2023/12/04 04:52:05;;;;;;;33.50;16.10;;;;;;;-2.85;81.22;101384.57;124778;1099;104387;-77
2023/12/04 04:54:36;;;;;;;33.07;15.77;;;;;;;-2.83;81.21;101382.16;124323;1102;102500;-77
2023/12/04 04:57:08;;;;;;;35.03;15.00;;;;;;;-2.81;81.69;101388.36;124801;1099;104064;-78
2023/12/04 04:59:40;;;;;;;35.63;15.70;;;;;;;-2.82;82.15;101386.52;124320;1099;104300;-77
2023/12/04 05:02:11;;;;;;;36.27;15.90;;;;;;;-2.84;81.22;101393.17;124794;1099;101877;-78
2023/12/04 05:04:43;;;;;;;32.77;15.07;;;;;;;-2.83;81.82;101397.58;124812;1099;104261;-77
2023/12/04 05:07:14;;;;;;;34.27;15.50;;;;;;;-2.84;81.28;101390.61;124783;1099;104249;-77
2023/12/04 05:09:46;;;;;;;31.70;14.53;;;;;;;-2.80;81.04;101390.19;124839;1098;104169;-77
2023/12/04 05:12:17;;;;;;;33.20;14.83;;;;;;;-2.80;82.35;101397.89;124750;1099;104179;-79
2023/12/04 05:14:49;;;;;;;30.70;14.23;;;;;;;-2.79;82.27;101403.19;124837;1099;101955;-79
2023/12/04 05:17:20;;;;;;;32.53;14.00;;;;;;;-2.78;82.13;101411.79;124836;1099;104254;-78
2023/12/04 05:19:52;;;;;;;31.77;14.63;;;;;;;-2.77;82.07;101411.05;124842;1099;101817;-79
2023/12/04 05:22:23;;;;;;;30.60;13.50;;;;;;;-2.74;82.25;101421.64;124861;1099;104232;-77
2023/12/04 05:24:55;;;;;;;30.43;14.87;;;;;;;-2.70;81.04;101418.62;124963;1099;104159;-75
2023/12/04 05:27:26;;;;;;;35.30;14.83;;;;;;;-2.64;82.45;101414.11;125001;1099;101830;-79
2023/12/04 05:29:58;;;;;;;32.87;15.03;;;;;;;-2.60;82.09;101423.03;124924;1099;103043;-76
2023/12/04 05:32:29;;;;;;;31.80;14.77;;;;;;;-2.57;82.10;101424.28;124619;1099;104195;-77
2023/12/04 05:35:01;;;;;;;36.17;15.40;;;;;;;-2.50;81.30;101424.91;124923;1099;104034;-75
2023/12/04 05:37:33;;;;;;;30.77;14.10;;;;;;;-2.46;81.68;101424.45;124481;1099;104229;-79
2023/12/04 05:40:05;;;;;;;35.03;15.20;;;;;;;-2.43;81.34;101432.47;124558;1099;104759;-78
2023/12/04 05:42:43;;;;;;;28.73;13.20;;;;;;;-2.37;82.34;101435.67;125080;1099;102068;-77
2023/12/04 05:45:14;;;;;;;30.57;12.50;;;;;;;-2.32;82.01;101436.14;125077;1099;107087;-78
2023/12/04 05:47:46;;;;;;;29.83;13.43;;;;;;;-2.32;81.42;101438.72;125165;1099;101870;-78
2023/12/04 05:53:15;;;;;;;28.03;12.87;;;;;;;-2.30;82.11;101448.41;125459;1099;103323;-79
2023/12/04 05:55:47;;;;;;;33.97;14.53;;;;;;;-2.29;81.07;101451.88;125661;1099;104357;-79
2023/12/04 05:58:18;;;;;;;30.97;12.70;;;;;;;-2.27;81.62;101446.16;125903;1099;101944;-79
2023/12/04 06:00:50;;;;;;;32.50;13.53;;;;;;;-2.23;81.14;101452.51;125146;1099;101957;-79
2023/12/04 06:03:24;;;;;;;26.63;13.10;;;;;;;-2.19;81.24;101465.83;125575;1099;102529;-78
2023/12/04 06:05:54;;;;;;;;;;;;;;;-2.13;82.02;101472.38;125726;1099;102492;-79
2023/12/04 06:08:25;;;;;;;29.73;12.80;;;;;;;-2.12;81.80;101479.31;124752;1099;104354;-77
2023/12/04 06:10:57;;;;;;;26.07;12.10;;;;;;;-2.12;81.23;101477.67;124961;1099;101962;-78
2023/12/04 06:13:28;;;;;;;27.20;12.20;;;;;;;-2.08;80.98;101481.45;124951;1099;102416;-78
2023/12/04 06:16:02;;;;;;;26.53;11.60;;;;;;;-2.03;82.08;101493.11;125335;1099;104220;-79
2023/12/04 06:18:34;;;;;;;24.40;11.97;;;;;;;-2.02;81.90;101500.09;125680;1099;102742;-78
2023/12/04 06:21:07;;;;;;;27.07;11.87;;;;;;;-2.00;81.02;101490.85;125907;1099;102943;-81
2023/12/04 06:23:41;;;;;;;26.60;11.17;;;;;;;-1.97;81.90;101503.12;125565;1098;104159;-82
2023/12/04 06:26:17;;;;;;;25.23;11.13;;;;;;;-1.92;81.73;101501.92;125641;1098;101893;-81
2023/12/04 06:28:50;;;;;;;25.67;11.50;;;;;;;-1.89;80.49;101494.52;125450;1099;104238;-80
2023/12/04 06:31:23;;;;;;;25.23;11.30;;;;;;;-1.86;80.50;101500.87;125422;1099;101829;-79
2023/12/04 06:36:47;;;;;;;25.50;11.80;;;;;;;-1.78;81.40;101518.76;126402;1102;101824;-77
2023/12/04 06:39:19;;;;;;;27.77;11.23;;;;;;;-1.81;80.67;101512.55;127292;1102;101469;-79
2023/12/04 06:41:54;;;;;;;26.90;11.30;;;;;;;-1.78;81.03;101518.76;127086;1101;101789;-75
2023/12/04 06:44:27;;;;;;;27.63;12.77;;;;;;;-1.75;80.44;101524.22;125663;1101;102047;-73
2023/12/04 06:47:03;;;;;;;25.67;12.37;;;;;;;-1.74;80.16;101521.80;124022;1102;104220;-73
2023/12/04 06:49:35;;;;;;;27.37;12.27;;;;;;;-1.68;81.33;101526.66;124232;1102;102517;-74
2023/12/04 06:52:08;;;;;;;28.05;12.60;;;;;;;-1.65;81.02;101534.70;124114;1102;103362;-72
2023/12/04 06:54:39;;;;;;;30.07;14.73;;;;;;;-1.64;81.44;101524.55;124103;1102;104198;-74
2023/12/04 06:57:13;;;;;;;29.40;13.63;;;;;;;-1.56;80.77;101529.54;124025;1102;104284;-78
2023/12/04 06:59:46;;;;;;;31.03;14.20;;;;;;;-1.49;81.51;101521.69;123973;1105;104182;-76
2023/12/04 07:02:17;;;;;;;29.67;13.90;;;;;;;-1.41;81.60;101525.93;124103;1102;104242;-76
2023/12/04 07:04:49;;;;;;;31.57;12.20;;;;;;;-1.32;81.61;101521.70;123967;1102;104208;-75
2023/12/04 07:07:21;;;;;;;27.97;12.57;;;;;;;-1.28;81.33;101528.05;123934;1105;104271;-74
2023/12/04 07:09:55;;;;;;;29.30;12.73;;;;;;;-1.17;80.94;101521.39;124253;1102;102012;-74
2023/12/04 07:12:27;;;;;;;26.12;12.13;;;;;;;-1.13;80.65;101515.80;124097;1102;104235;-73
2023/12/04 07:15:01;;;;;;;25.97;12.83;;;;;;;-1.09;80.71;101523.98;124002;1102;104246;-74
2023/12/04 07:17:33;;;;;;;28.70;12.90;;;;;;;-1.07;80.62;101526.70;123979;1102;102520;-73
2023/12/04 07:20:06;;;;;;;24.20;11.00;;;;;;;-1.04;80.89;101531.23;123995;1102;104243;-72
2023/12/04 07:22:37;;;;;;;24.90;12.40;;;;;;;-1.10;80.62;101523.83;123905;1105;101901;-73
2023/12/04 07:25:20;;;;;;;;;;;;;;;;;;;;;
2023/12/04 07:27:59;;;;;;;26.50;12.50;;;;;;;-0.80;81.17;101556.83;123914;1102;104229;-73
2023/12/04 07:30:31;;;;;;;26.60;12.53;;;;;;;-0.69;80.94;101563.03;124135;1102;104316;-73
2023/12/04 07:33:06;;;;;;;23.60;11.40;;;;;;;-0.60;81.53;101560.45;124111;1102;104210;-73
2023/12/04 07:35:39;;;;;;;27.07;12.40;;;;;;;-0.46;80.93;101559.22;124053;1102;102341;-72
2023/12/04 07:38:11;;;;;;;19.67;9.70;;;;;;;-0.32;81.57;101552.81;123937;1102;104182;-73
2023/12/04 07:40:45;;;;;;;25.60;11.90;;;;;;;-0.20;81.23;101561.72;123931;1102;104318;-73
2023/12/04 07:43:17;;;;;;;29.47;12.60;;;;;;;-0.13;80.90;101563.20;123981;1102;104261;-76
2023/12/04 07:45:50;;;;;;;30.80;13.38;;;;;;;-0.03;81.10;101560.75;124094;1102;104371;-74
2023/12/04 07:48:22;;;;;;;26.07;12.43;;;;;;;0.06;81.17;101552.95;124163;1102;102083;-74
2023/12/04 07:50:58;;;;;;;24.07;11.90;;;;;;;0.06;80.83;101563.28;124730;1102;104188;-74
2023/12/04 07:53:30;;;;;;;24.80;11.33;;;;;;;0.09;80.88;101564.47;124150;1102;102083;-75
2023/12/04 07:56:06;;;;;;;26.80;11.80;;;;;;;0.11;80.84;101578.45;125512;1101;101826;-74
2023/12/04 07:58:40;;;;;;;23.17;11.10;;;;;;;0.13;80.84;101574.33;123924;1102;101964;-75
2023/12/04 08:01:14;;;;;;;25.13;13.27;;;;;;;0.20;80.70;101586.13;123930;1102;101897;-75
2023/12/04 08:03:51;;;;;;;25.77;12.20;;;;;;;0.27;80.52;101585.95;123969;1102;104188;-75
2023/12/04 08:06:23;;;;;;;25.00;12.07;;;;;;;0.33;80.72;101586.53;123966;1102;104257;-75
2023/12/04 08:08:55;;;;;;;25.40;11.47;;;;;;;0.35;80.44;101595.33;124132;1102;104108;-75
2023/12/04 08:11:27;;;;;;;30.40;13.00;;;;;;;0.41;80.32;101591.52;124235;1102;102511;-77
2023/12/04 08:13:59;;;;;;;28.40;12.83;;;;;;;0.51;80.31;101594.18;123923;1102;104367;-74
2023/12/04 08:16:33;;;;;;;27.63;13.00;;;;;;;0.59;80.24;101598.38;124065;1102;102012;-78
2023/12/04 08:19:09;;;;;;;28.50;13.48;;;;;;;0.65;80.33;101598.05;125397;1101;102153;-76
2023/12/04 08:22:01;;;;;;;27.40;12.37;;;;;;;0.69;80.22;101598.48;123959;1102;101892;-76
2023/12/04 08:27:41;;;;;;;25.63;11.53;;;;;;;0.70;80.04;101597.72;124343;1102;104284;-78
2023/12/04 08:30:22;;;;;;;22.27;10.37;;;;;;;0.75;80.02;101605.90;124005;1105;101984;-76
2023/12/04 08:35:52;;;;;;;26.65;11.75;;;;;;;0.85;79.84;101598.20;124096;1102;104277;-76
2023/12/04 08:38:32;;;;;;;24.73;10.90;;;;;;;0.85;79.35;101602.48;124510;1102;104290;-75
2023/12/04 08:41:08;;;;;;;24.03;11.07;;;;;;;0.82;79.97;101597.03;124059;1102;103414;-76
2023/12/04 08:43:58;;;;;;;24.10;11.57;;;;;;;0.82;79.69;101595.34;125578;1102;104252;-77
2023/12/04 08:46:33;;;;;;;25.48;12.35;;;;;;;0.85;78.29;101594.73;124357;1102;103086;-77
2023/12/04 08:49:08;;;;;;;24.77;11.47;;;;;;;0.94;79.51;101599.84;124427;1102;101823;-76
2023/12/04 08:51:41;;;;;;;;;;;;;;;1.21;79.72;101585.92;124503;1102;104258;-77
2023/12/04 08:54:22;;;;;;;24.97;11.03;;;;;;;1.36;79.61;101582.14;124316;1103;104210;-77
2023/12/04 08:56:59;;;;;;;23.73;11.20;;;;;;;1.32;79.50;101581.72;125746;1101;102280;-77
2023/12/04 08:59:36;;;;;;;23.87;11.03;;;;;;;1.21;78.98;101591.98;125032;1103;101891;-76
2023/12/04 09:02:10;;;;;;;22.53;10.57;;;;;;;1.26;78.97;101592.41;125173;1102;101931;-75
2023/12/04 09:04:44;;;;;;;22.77;11.03;;;;;;;1.39;78.82;101591.86;124053;1105;104300;-76
2023/12/04 09:07:18;;;;;;;21.53;10.20;;;;;;;1.38;78.28;101598.69;124695;1103;104374;-76
2023/12/04 09:09:50;;;;;;;22.15;10.25;;;;;;;1.38;78.10;101587.45;124128;1102;104220;-75
2023/12/04 09:12:36;;;;;;;25.30;11.27;;;;;;;1.50;78.56;101587.66;125583;1101;102135;-75
2023/12/04 09:15:13;;;;;;;23.43;11.20;;;;;;;1.65;78.70;101594.16;124159;1102;104188;-75
2023/12/04 09:18:05;;;;;;;23.80;11.43;;;;;;;1.70;78.40;101590.33;125095;1102;101914;-76
2023/12/04 09:20:37;;;;;;;26.77;11.77;;;;;;;1.77;78.20;101584.00;124156;1106;104654;-75
2023/12/04 09:23:09;;;;;;;27.57;11.73;;;;;;;1.87;78.72;101586.64;124104;1102;102013;-77
2023/12/04 09:25:43;;;;;;;21.63;10.70;;;;;;;1.85;78.91;101592.44;125579;1101;101989;-76
2023/12/04 09:28:16;;;;;;;23.10;9.93;;;;;;;1.80;74.97;101586.86;124154;1102;102299;-77
2023/12/04 09:30:50;;;;;;;20.00;9.30;;;;;;;1.64;76.03;101582.02;124028;1102;102045;-75
2023/12/04 09:33:32;;;;;;;23.00;11.30;;;;;;;1.69;76.88;101590.19;125110;1102;104108;-75
2023/12/04 09:36:21;;;;;;;22.60;10.40;;;;;;;1.67;76.82;101577.11;124101;1102;104257;-77
2023/12/04 09:39:17;;;;;;;18.83;8.63;;;;;;;1.52;75.59;101581.81;124096;1102;104284;-77
2023/12/04 09:41:50;;;;;;;19.40;8.63;;;;;;;1.40;76.04;101581.66;124327;1102;104243;-75
2023/12/04 09:44:30;;;;;;;20.97;9.57;;;;;;;1.25;75.60;101575.09;124213;1102;104191;-74
2023/12/04 09:47:11;;;;;;;22.53;9.60;;;;;;;1.28;75.47;101574.45;124280;1102;104176;-75
2023/12/04 09:49:47;;;;;;;23.47;10.47;;;;;;;1.25;75.05;101567.34;125110;1102;101933;-78
2023/12/04 09:52:56;;;;;;;20.40;9.10;;;;;;;1.15;74.64;101554.34;125711;1101;102018;-78
2023/12/04 09:55:41;;;;;;;24.00;9.57;;;;;;;1.05;74.24;101550.92;124828;1102;104198;-79
2023/12/04 09:58:20;;;;;;;21.77;9.63;;;;;;;0.99;73.81;101547.78;124996;1102;102051;-79
2023/12/04 10:01:03;;;;;;;20.57;9.67;;;;;;;0.98;74.55;101547.64;126216;1101;101690;-75
2023/12/04 10:03:39;;;;;;;23.33;11.13;;;;;;;1.04;75.75;101538.80;124226;1103;104294;-77
2023/12/04 10:06:18;;;;;;;22.40;10.53;;;;;;;1.20;75.91;101537.55;124681;1102;101796;-78
2023/12/04 10:08:57;;;;;;;21.97;10.00;;;;;;;1.28;75.12;101539.17;125972;1102;101855;-77
2023/12/04 10:11:33;;;;;;;22.83;10.47;;;;;;;1.22;74.68;101538.63;126214;1101;102547;-76
2023/12/04 10:14:17;;;;;;;21.90;9.70;;;;;;;1.15;75.62;101531.97;125424;1102;102542;-78
2023/12/04 10:16:55;;;;;;;22.80;10.57;;;;;;;1.17;76.16;101532.11;126801;1102;102489;-79
2023/12/04 10:19:28;;;;;;;23.90;10.27;;;;;;;1.22;75.35;101530.87;125926;1102;101899;-78
2023/12/04 10:22:08;;;;;;;20.00;8.95;;;;;;;1.19;74.90;101528.91;125627;1102;101839;-79
2023/12/04 10:24:45;;;;;;;23.37;9.93;;;;;;;1.12;74.68;101525.63;125868;1102;104262;-79
2023/12/04 10:27:27;;;;;;;22.30;9.30;;;;;;;1.05;74.44;101529.34;125157;1105;102253;-79
2023/12/04 10:30:06;;;;;;;18.90;8.33;;;;;;;1.03;75.24;101531.80;127087;1101;102886;-80
2023/12/04 10:32:45;;;;;;;21.93;10.10;;;;;;;1.03;74.85;101531.80;125758;1102;104265;-79
2023/12/04 10:35:20;;;;;;;25.73;10.00;;;;;;;1.01;74.17;101530.76;124437;1102;104230;-79
2023/12/04 10:37:55;;;;;;;;;;;;;;;1.00;74.02;101520.28;124370;1102;101912;-79
2023/12/04 10:40:28;;;;;;;21.00;9.40;;;;;;;1.06;74.54;101516.56;124563;1106;101976;-79
2023/12/04 10:43:16;;;;;;;20.47;8.80;;;;;;;1.18;74.98;101524.48;125897;1101;104175;-79
2023/12/04 10:45:50;;;;;;;21.97;9.48;;;;;;;1.15;74.16;101525.91;124724;1102;104338;-77
2023/12/04 10:48:36;;;;;;;21.97;10.43;;;;;;;1.09;73.76;101526.25;127040;1101;101797;-78
2023/12/04 10:51:32;;;;;;;20.90;9.17;;;;;;;1.05;73.87;101526.77;125103;1102;101855;-76
2023/12/04 10:54:07;;;;;;;20.37;9.20;;;;;;;1.04;73.67;101522.35;125462;1102;101680;-77
2023/12/04 10:56:44;;;;;;;22.53;9.80;;;;;;;1.05;74.54;101517.32;125626;1101;102132;-76
2023/12/04 10:59:31;;;;;;;20.90;9.53;;;;;;;1.09;74.56;101515.91;125501;1102;104092;-77
2023/12/04 11:02:08;;;;;;;22.77;9.60;;;;;;;1.06;74.05;101515.63;124165;1102;101929;-74
2023/12/04 11:04:44;;;;;;;19.97;9.23;;;;;;;1.04;74.23;101517.18;125062;1102;102050;-75
2023/12/04 11:07:27;;;;;;;20.85;9.65;;;;;;;1.06;74.65;101519.15;124149;1103;104176;-75
2023/12/04 11:10:24;;;;;;;20.33;9.70;;;;;;;1.11;74.51;101514.39;124044;1102;104386;-74
2023/12/04 11:13:04;;;;;;;25.88;10.98;;;;;;;1.19;74.98;101517.66;126488;1102;107974;-76
2023/12/04 11:15:52;;;;;;;20.70;9.70;;;;;;;1.23;74.05;101519.73;124275;1103;102127;-76
2023/12/04 11:18:34;;;;;;;23.03;9.93;;;;;;;1.16;74.56;101514.80;125601;1101;104253;-76
2023/12/04 11:21:17;;;;;;;24.27;10.03;;;;;;;1.14;74.34;101522.42;124225;1103;101981;-78
2023/12/04 11:23:54;;;;;;;24.83;10.23;;;;;;;1.18;74.00;101531.35;125293;1105;102032;-76
2023/12/04 11:26:31;;;;;;;;;;;;;;;1.05;73.36;101517.32;125221;1102;104263;-76
2023/12/04 11:29:16;;;;;;;24.47;10.20;;;;;;;1.09;73.62;101536.59;124338;1102;103410;-75
2023/12/04 11:31:57;;;;;;;24.23;9.95;;;;;;;1.04;73.83;101531.03;124349;1102;104245;-78
2023/12/04 11:34:36;;;;;;;23.23;10.30;;;;;;;1.07;74.50;101533.86;125191;1103;101953;-78
2023/12/04 11:37:14;;;;;;;22.20;10.80;;;;;;;1.10;74.00;101522.91;124406;1105;104319;-78
2023/12/04 11:39:50;;;;;;;22.57;10.17;;;;;;;1.13;74.76;101517.11;124255;1102;104286;-76
2023/12/04 11:42:29;;;;;;;23.27;10.17;;;;;;;1.24;74.51;101524.14;124846;1102;102111;-77